Wetterdaten: Mittwoch, 02.06.2010
Datum Zeit Temp. A. Feuchte A. Luftdruck Regen Wind Richtung Richtung Sonnenschein UV Solar Windben
02.06.2010 00:01 15,0 C 67 % 1013,0 hPa 0,0 mm 1,5 km/h (1 Bft) NO 36 0 min 0 UV-I 0 W/m 8,0 km/h (2 Bft)
02.06.2010 00:10 15,0 C 68 % 1013,0 hPa 0,0 mm 0,0 km/h (0 Bft) NW 315 0 min 0 UV-I 0 W/m 4,8 km/h (1 Bft)
02.06.2010 00:20 15,0 C 68 % 1013,1 hPa 0,0 mm 0,0 km/h (0 Bft) N-NO 22 0 min 0 UV-I 0 W/m 8,0 km/h (2 Bft)
02.06.2010 00:30 14,9 C 67 % 1013,1 hPa 0,0 mm 3,2 km/h (1 Bft) N-NO 22 0 min 0 UV-I 0 W/m 11,3 km/h (2 Bft)
02.06.2010 00:40 14,8 C 68 % 1013,1 hPa 0,0 mm 1,6 km/h (1 Bft) N-NO 22 0 min 0 UV-I 0 W/m 6,4 km/h (2 Bft)
02.06.2010 00:50 14,7 C 68 % 1013,1 hPa 0,0 mm 1,6 km/h (1 Bft) N-NO 22 0 min 0 UV-I 0 W/m 6,4 km/h (2 Bft)
02.06.2010 01:00 14,5 C 68 % 1013,0 hPa 0,0 mm 1,6 km/h (1 Bft) N-NO 22 0 min 0 UV-I 0 W/m 8,0 km/h (2 Bft)
02.06.2010 01:10 14,4 C 69 % 1013,0 hPa 0,0 mm 1,6 km/h (1 Bft) NO 45 0 min 0 UV-I 0 W/m 6,4 km/h (2 Bft)
02.06.2010 01:20 14,3 C 69 % 1013,1 hPa 0,0 mm 1,6 km/h (1 Bft) N 360 0 min 0 UV-I 0 W/m 9,7 km/h (2 Bft)
02.06.2010 01:30 14,2 C 70 % 1013,0 hPa 0,0 mm 1,6 km/h (1 Bft) N 360 0 min 0 UV-I 0 W/m 9,7 km/h (2 Bft)
02.06.2010 01:40 13,9 C 72 % 1013,0 hPa 0,0 mm 0,0 km/h (0 Bft) W-SW 247 0 min 0 UV-I 0 W/m 4,8 km/h (1 Bft)
02.06.2010 01:50 13,8 C 73 % 1013,1 hPa 0,0 mm 0,0 km/h (0 Bft) W 270 0 min 0 UV-I 0 W/m 4,8 km/h (1 Bft)
02.06.2010 02:00 13,6 C 74 % 1013,1 hPa 0,0 mm 0,0 km/h (0 Bft) W-NW 292 0 min 0 UV-I 0 W/m 3,2 km/h (1 Bft)
02.06.2010 02:10 13,6 C 74 % 1013,2 hPa 0,0 mm 0,0 km/h (0 Bft) W-NW 292 0 min 0 UV-I 0 W/m 1,6 km/h (1 Bft)
02.06.2010 02:20 13,5 C 73 % 1013,2 hPa 0,0 mm 0,0 km/h (0 Bft) W-NW 292 0 min 0 UV-I 0 W/m 3,2 km/h (1 Bft)
02.06.2010 02:30 13,4 C 74 % 1013,2 hPa 0,0 mm 0,0 km/h (0 Bft) W-NW 292 0 min 0 UV-I 0 W/m 1,6 km/h (1 Bft)
02.06.2010 02:40 13,3 C 74 % 1013,2 hPa 0,0 mm 0,0 km/h (0 Bft) W-NW 292 0 min 0 UV-I 0 W/m 3,2 km/h (1 Bft)
02.06.2010 02:50 13,2 C 74 % 1013,3 hPa 0,0 mm 0,0 km/h (0 Bft) N 0 0 min 0 UV-I 0 W/m 0,0 km/h (0 Bft)
02.06.2010 03:00 13,1 C 74 % 1013,2 hPa 0,0 mm 0,0 km/h (0 Bft) W-NW 292 0 min 0 UV-I 0 W/m 1,6 km/h (1 Bft)
02.06.2010 03:10 12,8 C 76 % 1013,3 hPa 0,0 mm 0,0 km/h (0 Bft) W-NW 292 0 min 0 UV-I 0 W/m 1,6 km/h (1 Bft)
02.06.2010 03:20 12,6 C 77 % 1013,3 hPa 0,0 mm 0,0 km/h (0 Bft) W-NW 292 0 min 0 UV-I 0 W/m 1,6 km/h (1 Bft)
02.06.2010 03:30 12,3 C 78 % 1013,3 hPa 0,0 mm 0,0 km/h (0 Bft) N 0 0 min 0 UV-I 0 W/m 0,0 km/h (0 Bft)
02.06.2010 03:40 12,1 C 79 % 1013,3 hPa 0,0 mm 0,0 km/h (0 Bft) N 0 0 min 0 UV-I 0 W/m 0,0 km/h (0 Bft)
02.06.2010 03:50 12,0 C 80 % 1013,2 hPa 0,0 mm 0,0 km/h (0 Bft) W-NW 292 0 min 0 UV-I 0 W/m 1,6 km/h (1 Bft)
02.06.2010 04:00 12,0 C 80 % 1013,5 hPa 0,0 mm 0,0 km/h (0 Bft) W-NW 292 0 min 0 UV-I 0 W/m 1,6 km/h (1 Bft)
02.06.2010 04:10 12,0 C 80 % 1013,5 hPa 0,0 mm 0,0 km/h (0 Bft) N 0 0 min 0 UV-I 0 W/m 0,0 km/h (0 Bft)
02.06.2010 04:20 11,9 C 80 % 1013,6 hPa 0,0 mm 0,0 km/h (0 Bft) W-NW 292 0 min 0 UV-I 0 W/m 1,6 km/h (1 Bft)
02.06.2010 04:30 11,9 C 80 % 1013,6 hPa 0,0 mm 0,0 km/h (0 Bft) W-NW 292 0 min 0 UV-I 0 W/m 1,6 km/h (1 Bft)
02.06.2010 04:40 11,8 C 81 % 1013,7 hPa 0,0 mm 0,0 km/h (0 Bft) W-NW 292 0 min 0 UV-I 0 W/m 1,6 km/h (1 Bft)
02.06.2010 04:50 11,7 C 81 % 1013,7 hPa 0,0 mm 0,0 km/h (0 Bft) W-NW 292 0 min 0 UV-I 0 W/m 1,6 km/h (1 Bft)
02.06.2010 05:00 11,5 C 82 % 1013,8 hPa 0,0 mm 0,0 km/h (0 Bft) W-NW 292 0 min 0 UV-I 0 W/m 1,6 km/h (1 Bft)
02.06.2010 05:10 11,3 C 82 % 1013,8 hPa 0,0 mm 0,0 km/h (0 Bft) W-NW 292 0 min 0 UV-I 0 W/m 1,6 km/h (1 Bft)
02.06.2010 05:20 11,1 C 83 % 1013,9 hPa 0,0 mm 0,0 km/h (0 Bft) N 0 0 min 0 UV-I 5 W/m 0,0 km/h (0 Bft)
02.06.2010 05:30 10,8 C 84 % 1014,0 hPa 0,0 mm 0,0 km/h (0 Bft) W-NW 292 0 min 0 UV-I 9 W/m 1,6 km/h (1 Bft)
02.06.2010 05:40 10,7 C 84 % 1013,9 hPa 0,0 mm 0,0 km/h (0 Bft) W-NW 292 0 min 0 UV-I 12 W/m 3,2 km/h (1 Bft)
02.06.2010 05:50 10,6 C 85 % 1014,0 hPa 0,0 mm 0,0 km/h (0 Bft) W-NW 292 0 min 0 UV-I 12 W/m 1,6 km/h (1 Bft)
02.06.2010 06:00 10,4 C 85 % 1014,2 hPa 0,0 mm 0,0 km/h (0 Bft) N 0 0 min 0 UV-I 14 W/m 0,0 km/h (0 Bft)
02.06.2010 06:10 10,3 C 86 % 1014,2 hPa 0,0 mm 0,0 km/h (0 Bft) W-NW 292 0 min 0 UV-I 23 W/m 1,6 km/h (1 Bft)
02.06.2010 06:20 10,2 C 86 % 1014,2 hPa 0,0 mm 0,0 km/h (0 Bft) W-NW 292 0 min 0 UV-I 32 W/m 3,2 km/h (1 Bft)
02.06.2010 06:30 10,2 C 86 % 1014,3 hPa 0,0 mm 0,0 km/h (0 Bft) W-NW 292 0 min 0 UV-I 35 W/m 1,6 km/h (1 Bft)
02.06.2010 06:40 10,2 C 86 % 1014,3 hPa 0,0 mm 0,0 km/h (0 Bft) W-NW 292 0 min 0 UV-I 46 W/m 1,6 km/h (1 Bft)
02.06.2010 06:50 10,2 C 86 % 1014,5 hPa 0,0 mm 0,0 km/h (0 Bft) W-NW 292 0 min 0 UV-I 67 W/m 1,6 km/h (1 Bft)
02.06.2010 07:00 10,4 C 85 % 1014,5 hPa 0,0 mm 0,0 km/h (0 Bft) W 270 0 min 0 UV-I 88 W/m 6,4 km/h (2 Bft)
02.06.2010 07:10 10,6 C 85 % 1014,5 hPa 0,0 mm 1,6 km/h (1 Bft) W 270 0 min 1 UV-I 123 W/m 4,8 km/h (1 Bft)
02.06.2010 07:20 10,9 C 84 % 1014,6 hPa 0,0 mm 1,6 km/h (1 Bft) W-SW 247 0 min 1 UV-I 142 W/m 8,0 km/h (2 Bft)
02.06.2010 07:30 11,1 C 83 % 1014,6 hPa 0,0 mm 1,6 km/h (1 Bft) NW 315 0 min 1 UV-I 151 W/m 6,4 km/h (2 Bft)
02.06.2010 07:40 11,1 C 82 % 1014,7 hPa 0,0 mm 1,6 km/h (1 Bft) W-NW 292 0 min 1 UV-I 81 W/m 8,0 km/h (2 Bft)
02.06.2010 07:50 11,1 C 83 % 1014,6 hPa 0,0 mm 0,0 km/h (0 Bft) W-NW 292 10 min 1 UV-I 294 W/m 3,2 km/h (1 Bft)
02.06.2010 08:00 11,7 C 81 % 1014,6 hPa 0,0 mm 1,6 km/h (1 Bft) W-NW 292 10 min 1 UV-I 461 W/m 6,4 km/h (2 Bft)
02.06.2010 08:10 12,2 C 80 % 1014,7 hPa 0,0 mm 1,6 km/h (1 Bft) W 270 10 min 1 UV-I 237 W/m 8,0 km/h (2 Bft)
02.06.2010 08:20 12,3 C 80 % 1014,8 hPa 0,0 mm 1,6 km/h (1 Bft) W 270 0 min 1 UV-I 195 W/m 6,4 km/h (2 Bft)
02.06.2010 08:30 12,5 C 80 % 1014,9 hPa 0,0 mm 1,6 km/h (1 Bft) W 270 0 min 1 UV-I 188 W/m 6,4 km/h (2 Bft)
02.06.2010 08:40 12,7 C 79 % 1015,0 hPa 0,0 mm 1,6 km/h (1 Bft) W-NW 292 0 min 1 UV-I 188 W/m 6,4 km/h (2 Bft)
02.06.2010 08:50 12,9 C 79 % 1015,1 hPa 0,0 mm 0,0 km/h (0 Bft) N-NW 337 0 min 1 UV-I 192 W/m 4,8 km/h (1 Bft)
02.06.2010 09:00 12,9 C 80 % 1015,1 hPa 0,0 mm 0,0 km/h (0 Bft) NW 315 0 min 1 UV-I 195 W/m 3,2 km/h (1 Bft)
02.06.2010 09:10 13,3 C 78 % 1015,2 hPa 0,0 mm 1,6 km/h (1 Bft) W-NW 292 0 min 1 UV-I 236 W/m 6,4 km/h (2 Bft)
02.06.2010 09:20 13,6 C 76 % 1015,1 hPa 0,0 mm 3,2 km/h (1 Bft) W-NW 292 10 min 3 UV-I 396 W/m 9,7 km/h (2 Bft)
02.06.2010 09:30 14,0 C 76 % 1015,2 hPa 0,0 mm 3,2 km/h (1 Bft) N 360 10 min 2 UV-I 383 W/m 11,3 km/h (2 Bft)
02.06.2010 09:40 14,3 C 75 % 1015,3 hPa 0,0 mm 1,6 km/h (1 Bft) N 360 0 min 2 UV-I 234 W/m 9,7 km/h (2 Bft)
02.06.2010 09:50 14,2 C 73 % 1015,3 hPa 0,0 mm 3,2 km/h (1 Bft) N 360 0 min 2 UV-I 211 W/m 11,3 km/h (2 Bft)
02.06.2010 10:00 14,3 C 73 % 1015,4 hPa 0,0 mm 3,2 km/h (1 Bft) N 360 0 min 2 UV-I 264 W/m 11,3 km/h (2 Bft)
02.06.2010 10:10 14,4 C 72 % 1015,3 hPa 0,0 mm 3,2 km/h (1 Bft) N-NW 337 10 min 2 UV-I 378 W/m 11,3 km/h (2 Bft)
02.06.2010 10:20 14,6 C 73 % 1015,4 hPa 0,0 mm 6,4 km/h (2 Bft) N-NO 22 0 min 2 UV-I 281 W/m 19,3 km/h (3 Bft)
02.06.2010 10:30 14,4 C 73 % 1015,4 hPa 0,0 mm 4,8 km/h (1 Bft) N-NO 22 10 min 3 UV-I 403 W/m 11,3 km/h (2 Bft)
02.06.2010 10:40 14,8 C 73 % 1015,4 hPa 0,0 mm 3,2 km/h (1 Bft) N-NO 22 10 min 3 UV-I 443 W/m 11,3 km/h (2 Bft)
02.06.2010 10:50 14,9 C 72 % 1015,5 hPa 0,0 mm 3,2 km/h (1 Bft) N-NO 22 0 min 3 UV-I 306 W/m 11,3 km/h (2 Bft)
02.06.2010 11:00 14,7 C 72 % 1015,7 hPa 0,0 mm 3,2 km/h (1 Bft) N-NO 22 0 min 2 UV-I 279 W/m 14,5 km/h (3 Bft)
02.06.2010 11:10 14,6 C 75 % 1015,7 hPa 0,0 mm 4,8 km/h (1 Bft) N-NO 22 0 min 3 UV-I 283 W/m 16,1 km/h (3 Bft)
02.06.2010 11:20 14,5 C 73 % 1015,7 hPa 0,0 mm 4,8 km/h (1 Bft) N 360 0 min 2 UV-I 230 W/m 17,7 km/h (3 Bft)
02.06.2010 11:30 14,2 C 75 % 1015,8 hPa 0,0 mm 4,8 km/h (1 Bft) N-NO 22 0 min 2 UV-I 188 W/m 19,3 km/h (3 Bft)
02.06.2010 11:40 14,2 C 75 % 1016,0 hPa 0,0 mm 4,8 km/h (1 Bft) N 360 0 min 1 UV-I 137 W/m 14,5 km/h (3 Bft)
02.06.2010 11:50 13,9 C 76 % 1016,1 hPa 0,0 mm 3,2 km/h (1 Bft) N-NO 22 0 min 1 UV-I 93 W/m 11,3 km/h (2 Bft)
02.06.2010 12:00 13,8 C 77 % 1016,3 hPa 0,0 mm 4,8 km/h (1 Bft) N-NO 22 0 min 1 UV-I 91 W/m 14,5 km/h (3 Bft)
02.06.2010 12:10 13,7 C 78 % 1016,3 hPa 0,0 mm 4,8 km/h (1 Bft) N 360 0 min 1 UV-I 91 W/m 19,3 km/h (3 Bft)
02.06.2010 12:20 13,4 C 79 % 1016,5 hPa 0,0 mm 4,8 km/h (1 Bft) N-NO 22 0 min 1 UV-I 88 W/m 17,7 km/h (3 Bft)
02.06.2010 12:30 13,4 C 80 % 1016,7 hPa 0,0 mm 6,4 km/h (2 Bft) N 360 0 min 1 UV-I 95 W/m 22,5 km/h (4 Bft)
02.06.2010 12:40 13,4 C 80 % 1016,6 hPa 0,0 mm 4,8 km/h (1 Bft) N-NO 22 0 min 2 UV-I 244 W/m 20,9 km/h (4 Bft)
02.06.2010 12:50 13,6 C 80 % 1016,6 hPa 0,0 mm 4,8 km/h (1 Bft) N 360 0 min 2 UV-I 243 W/m 17,7 km/h (3 Bft)
02.06.2010 13:00 13,8 C 80 % 1016,8 hPa 0,0 mm 3,2 km/h (1 Bft) N 360 0 min 3 UV-I 267 W/m 14,5 km/h (3 Bft)
02.06.2010 13:10 13,8 C 79 % 1016,8 hPa 0,0 mm 5,6 km/h (1 Bft) NO 37 0 min 2 UV-I 158 W/m 16,1 km/h (3 Bft)
02.06.2010 13:20 14,1 C 80 % 1016,7 hPa 0,0 mm 3,2 km/h (1 Bft) NO 49 0 min 3 UV-I 248 W/m 14,5 km/h (3 Bft)
02.06.2010 13:30 14,2 C 79 % 1016,8 hPa 0,0 mm 2,9 km/h (1 Bft) N-NW 333 0 min 3 UV-I 255 W/m 8,0 km/h (2 Bft)
02.06.2010 13:40 14,7 C 79 % 1016,8 hPa 0,0 mm 3,6 km/h (1 Bft) N 360 0 min 3 UV-I 337 W/m 11,3 km/h (2 Bft)
02.06.2010 13:50 15,1 C 76 % 1016,8 hPa 0,0 mm 4,0 km/h (1 Bft) NO 46 0 min 3 UV-I 315 W/m 14,5 km/h (3 Bft)
02.06.2010 14:00 15,0 C 77 % 1016,9 hPa 0,0 mm 3,5 km/h (1 Bft) NW 326 0 min 2 UV-I 221 W/m 11,3 km/h (2 Bft)
02.06.2010 14:10 15,2 C 76 % 1017,0 hPa 0,0 mm 2,1 km/h (1 Bft) W-NW 283 0 min 3 UV-I 288 W/m 8,0 km/h (2 Bft)
02.06.2010 14:20 15,4 C 76 % 1016,9 hPa 0,0 mm 2,5 km/h (1 Bft) NW 315 0 min 3 UV-I 342 W/m 11,3 km/h (2 Bft)
02.06.2010 14:30 15,9 C 73 % 1016,9 hPa 0,0 mm 3,3 km/h (1 Bft) N 360 0 min 3 UV-I 356 W/m 9,7 km/h (2 Bft)
02.06.2010 14:40 16,4 C 72 % 1016,9 hPa 0,0 mm 3,1 km/h (1 Bft) NW 305 10 min 4 UV-I 473 W/m 11,3 km/h (2 Bft)
02.06.2010 14:50 16,8 C 72 % 1016,8 hPa 0,0 mm 3,6 km/h (1 Bft) N 355 10 min 4 UV-I 493 W/m 14,5 km/h (3 Bft)
02.06.2010 15:00 16,6 C 71 % 1016,9 hPa 0,0 mm 3,3 km/h (1 Bft) N-NO 32 0 min 3 UV-I 308 W/m 9,7 km/h (2 Bft)
02.06.2010 15:10 16,5 C 71 % 1016,9 hPa 0,0 mm 5,4 km/h (1 Bft) N 5 0 min 3 UV-I 277 W/m 17,7 km/h (3 Bft)
02.06.2010 15:20 16,4 C 73 % 1016,9 hPa 0,0 mm 2,8 km/h (1 Bft) N 349 0 min 3 UV-I 282 W/m 11,3 km/h (2 Bft)
02.06.2010 15:30 17,2 C 70 % 1016,9 hPa 0,0 mm 4,7 km/h (1 Bft) NW 311 10 min 4 UV-I 494 W/m 22,5 km/h (4 Bft)
02.06.2010 15:40 17,6 C 69 % 1017,0 hPa 0,0 mm 5,1 km/h (1 Bft) N-NO 26 10 min 4 UV-I 493 W/m 16,1 km/h (3 Bft)
02.06.2010 15:50 17,1 C 69 % 1017,0 hPa 0,0 mm 4,1 km/h (1 Bft) NW 316 0 min 2 UV-I 308 W/m 16,1 km/h (3 Bft)
02.06.2010 16:00 17,3 C 68 % 1017,0 hPa 0,0 mm 3,2 km/h (1 Bft) N-NO 22 0 min 4 UV-I 360 W/m 12,9 km/h (3 Bft)
02.06.2010 16:10 17,6 C 68 % 1017,0 hPa 0,0 mm 4,8 km/h (1 Bft) N-NO 22 0 min 4 UV-I 315 W/m 20,9 km/h (4 Bft)
02.06.2010 16:20 17,7 C 67 % 1017,0 hPa 0,0 mm 3,2 km/h (1 Bft) N 360 10 min 4 UV-I 935 W/m 17,7 km/h (3 Bft)
02.06.2010 16:30 18,1 C 65 % 1016,9 hPa 0,0 mm 4,8 km/h (1 Bft) NW 315 10 min 4 UV-I 930 W/m 20,9 km/h (4 Bft)
02.06.2010 16:40 18,5 C 63 % 1017,0 hPa 0,0 mm 4,8 km/h (1 Bft) N-NO 22 10 min 4 UV-I 856 W/m 17,7 km/h (3 Bft)
02.06.2010 16:50 18,8 C 63 % 1016,9 hPa 0,0 mm 4,8 km/h (1 Bft) N 360 10 min 3 UV-I 877 W/m 16,1 km/h (3 Bft)
02.06.2010 17:00 19,1 C 63 % 1016,8 hPa 0,0 mm 4,8 km/h (1 Bft) N-NO 22 10 min 3 UV-I 759 W/m 17,7 km/h (3 Bft)
02.06.2010 17:10 18,8 C 64 % 1016,9 hPa 0,0 mm 3,2 km/h (1 Bft) N 360 10 min 3 UV-I 724 W/m 17,7 km/h (3 Bft)
02.06.2010 17:20 19,5 C 59 % 1016,9 hPa 0,0 mm 4,8 km/h (1 Bft) N-NO 22 10 min 3 UV-I 761 W/m 19,3 km/h (3 Bft)
02.06.2010 17:30 19,4 C 62 % 1016,9 hPa 0,0 mm 4,8 km/h (1 Bft) N-NO 22 10 min 3 UV-I 650 W/m 19,3 km/h (3 Bft)
02.06.2010 17:40 19,2 C 59 % 1016,9 hPa 0,0 mm 3,2 km/h (1 Bft) W-NW 292 10 min 2 UV-I 610 W/m 14,5 km/h (3 Bft)
02.06.2010 17:50 18,9 C 61 % 1016,9 hPa 0,0 mm 4,8 km/h (1 Bft) N 360 10 min 2 UV-I 584 W/m 16,1 km/h (3 Bft)
02.06.2010 18:00 19,5 C 59 % 1016,8 hPa 0,0 mm 4,8 km/h (1 Bft) NO 45 10 min 2 UV-I 596 W/m 16,1 km/h (3 Bft)
02.06.2010 18:10 19,9 C 58 % 1016,8 hPa 0,0 mm 4,8 km/h (1 Bft) N 360 10 min 2 UV-I 570 W/m 17,7 km/h (3 Bft)
02.06.2010 18:20 19,8 C 58 % 1016,7 hPa 0,0 mm 6,4 km/h (2 Bft) N-NO 22 10 min 2 UV-I 501 W/m 17,7 km/h (3 Bft)
02.06.2010 18:30 19,6 C 59 % 1016,8 hPa 0,0 mm 4,8 km/h (1 Bft) N-NO 22 10 min 2 UV-I 459 W/m 17,7 km/h (3 Bft)
02.06.2010 18:40 19,9 C 59 % 1016,7 hPa 0,0 mm 4,8 km/h (1 Bft) N 360 10 min 1 UV-I 446 W/m 17,7 km/h (3 Bft)
02.06.2010 18:50 20,1 C 59 % 1016,9 hPa 0,0 mm 3,2 km/h (1 Bft) N-NO 22 10 min 1 UV-I 411 W/m 20,9 km/h (4 Bft)
02.06.2010 19:00 20,3 C 56 % 1016,9 hPa 0,0 mm 4,8 km/h (1 Bft) N-NO 22 10 min 1 UV-I 357 W/m 20,9 km/h (4 Bft)
02.06.2010 19:10 20,4 C 57 % 1016,9 hPa 0,0 mm 4,8 km/h (1 Bft) N 360 10 min 1 UV-I 339 W/m 16,1 km/h (3 Bft)
02.06.2010 19:20 20,1 C 57 % 1017,0 hPa 0,0 mm 3,2 km/h (1 Bft) N-NO 22 10 min 1 UV-I 306 W/m 14,5 km/h (3 Bft)
02.06.2010 19:30 20,1 C 58 % 1017,1 hPa 0,0 mm 4,8 km/h (1 Bft) N-NO 22 10 min 1 UV-I 283 W/m 16,1 km/h (3 Bft)
02.06.2010 19:40 19,7 C 61 % 1017,2 hPa 0,0 mm 3,2 km/h (1 Bft) N 360 10 min 1 UV-I 255 W/m 14,5 km/h (3 Bft)
02.06.2010 19:50 19,3 C 62 % 1017,2 hPa 0,0 mm 1,6 km/h (1 Bft) N-NW 337 10 min 1 UV-I 204 W/m 11,3 km/h (2 Bft)
02.06.2010 20:00 19,2 C 61 % 1017,2 hPa 0,0 mm 3,2 km/h (1 Bft) N-NW 337 10 min 1 UV-I 181 W/m 16,1 km/h (3 Bft)
02.06.2010 20:10 18,9 C 62 % 1017,3 hPa 0,0 mm 1,6 km/h (1 Bft) N 360 10 min 0 UV-I 148 W/m 6,4 km/h (2 Bft)
02.06.2010 20:20 18,7 C 63 % 1017,3 hPa 0,0 mm 1,6 km/h (1 Bft) N-NW 337 0 min 0 UV-I 74 W/m 6,4 km/h (2 Bft)
02.06.2010 20:30 18,4 C 64 % 1017,3 hPa 0,0 mm 3,2 km/h (1 Bft) N 360 0 min 0 UV-I 42 W/m 11,3 km/h (2 Bft)
02.06.2010 20:40 18,2 C 64 % 1017,3 hPa 0,0 mm 1,6 km/h (1 Bft) NO 45 0 min 0 UV-I 35 W/m 8,0 km/h (2 Bft)
02.06.2010 20:50 17,9 C 65 % 1017,3 hPa 0,0 mm 0,0 km/h (0 Bft) N-NO 22 0 min 0 UV-I 30 W/m 4,8 km/h (1 Bft)
02.06.2010 21:00 17,7 C 66 % 1017,3 hPa 0,0 mm 0,0 km/h (0 Bft) N-NW 337 0 min 0 UV-I 25 W/m 6,4 km/h (2 Bft)
02.06.2010 21:10 17,4 C 68 % 1017,4 hPa 0,0 mm 0,0 km/h (0 Bft) N-NW 337 0 min 0 UV-I 19 W/m 1,6 km/h (1 Bft)
02.06.2010 21:20 17,1 C 69 % 1017,5 hPa 0,0 mm 0,0 km/h (0 Bft) N-NW 337 10 min 0 UV-I 12 W/m 1,6 km/h (1 Bft)
02.06.2010 21:30 16,7 C 71 % 1017,5 hPa 0,0 mm 0,0 km/h (0 Bft) N-NW 337 0 min 0 UV-I 0 W/m 4,8 km/h (1 Bft)
02.06.2010 21:40 16,6 C 72 % 1017,6 hPa 0,0 mm 0,0 km/h (0 Bft) N-NW 337 0 min 0 UV-I 0 W/m 1,6 km/h (1 Bft)
02.06.2010 21:50 16,4 C 73 % 1017,6 hPa 0,0 mm 0,0 km/h (0 Bft) NW 315 0 min 0 UV-I 0 W/m 4,8 km/h (1 Bft)
02.06.2010 22:00 16,3 C 73 % 1017,7 hPa 0,0 mm 1,6 km/h (1 Bft) N 360 0 min 0 UV-I 0 W/m 16,1 km/h (3 Bft)
02.06.2010 22:10 16,4 C 73 % 1017,8 hPa 0,0 mm 1,6 km/h (1 Bft) N 360 0 min 0 UV-I 0 W/m 14,5 km/h (3 Bft)
02.06.2010 22:20 16,3 C 73 % 1017,8 hPa 0,0 mm 3,2 km/h (1 Bft) N 360 0 min 0 UV-I 0 W/m 14,5 km/h (3 Bft)
02.06.2010 22:30 16,2 C 74 % 1017,9 hPa 0,0 mm 3,2 km/h (1 Bft) N-NO 22 0 min 0 UV-I 0 W/m 11,3 km/h (2 Bft)
02.06.2010 22:40 16,1 C 73 % 1017,9 hPa 0,0 mm 4,8 km/h (1 Bft) N 360 0 min 0 UV-I 0 W/m 14,5 km/h (3 Bft)
02.06.2010 22:50 15,9 C 73 % 1018,0 hPa 0,0 mm 4,8 km/h (1 Bft) N-NO 22 0 min 0 UV-I 0 W/m 12,9 km/h (3 Bft)
02.06.2010 23:00 15,7 C 73 % 1018,1 hPa 0,0 mm 3,2 km/h (1 Bft) N-NO 22 0 min 0 UV-I 0 W/m 11,3 km/h (2 Bft)
02.06.2010 23:10 15,6 C 73 % 1018,2 hPa 0,0 mm 3,2 km/h (1 Bft) N-NO 22 0 min 0 UV-I 0 W/m 11,3 km/h (2 Bft)
02.06.2010 23:20 15,4 C 72 % 1018,3 hPa 0,0 mm 4,8 km/h (1 Bft) N 360 0 min 0 UV-I 0 W/m 17,7 km/h (3 Bft)
02.06.2010 23:30 15,2 C 72 % 1018,3 hPa 0,0 mm 3,2 km/h (1 Bft) NO 45 0 min 0 UV-I 0 W/m 11,3 km/h (2 Bft)
02.06.2010 23:40 15,0 C 72 % 1018,2 hPa 0,0 mm 3,2 km/h (1 Bft) N-NO 22 0 min 0 UV-I 0 W/m 11,3 km/h (2 Bft)
02.06.2010 23:50 14,8 C 73 % 1018,3 hPa 0,0 mm 3,2 km/h (1 Bft) N-NO 22 0 min 0 UV-I 0 W/m 11,3 km/h (2 Bft)
_ Min-Zeit 06:40 19:00 00:01 - 00:10 - - - - - 02:50
Minimum _ 10,1 C 56 % 1013,0 hPa - 0,0 km/h (0 Bft) - - - - - 0,0 km/h (0 Bft)
_ Max-Zeit 19:10 06:10 23:20 00:01 10:20 - - 07:50 14:40 16:20 12:30
Maximum _ 20,5 C 86 % 1018,3 hPa 0,0 mm 6,4 km/h
N-NO (2 Bft)
- - 10 min 4 UV-I 935 W/m 22,5 km/h
W-NW (4 Bft)
Durchschnitt _ 14,9 C 73 % 1015,7 hPa #0,0 mm 2,4 km/h (1 Bft) N-NO - #6:10 h 2 UV-I 288 W/m 9,9 km/h (2 Bft)